Terminal Aerodrome Forecast
Issued by NWS Sioux Falls, SD

Home | Current Version | Previous Version | Graphics & Text | Print | Product List | Glossary On
Versions: 1 2 3 4 5 6 7 8 9 10 11 12 13 14 15 16 17 18 19 20 21
000
FTUS43 KFSD 210520
TAFSUX
TAF
KSUX 210520Z 2106/2206 VRB03KT P6SM SKC
      TEMPO 2108/2112 4SM BR
     FM211300 11005KT P6SM SKC
     FM211600 16013KT P6SM SKC=

USA.gov is the U.S. government's official web portal to all federal, state and local government web resources and services.